createdAt,value
2023-01-08T00:09:19.342Z,0.3612040133779264
2023-01-08T00:15:38.908Z,0.5083612040133779
2023-01-08T00:21:59.954Z,0.2608695652173913
2023-01-08T00:28:20.016Z,0.4080267558528428
2023-01-08T00:34:39.707Z,0.25418060200668896
2023-01-08T00:40:59.468Z,0.1605351170568562
2023-01-08T00:47:19.464Z,0.36789297658862874
2023-01-08T00:53:39.463Z,0.08695652173913043
2023-01-08T00:59:59.009Z,0.2608695652173913
2023-01-08T01:06:18.120Z,0.2608695652173913
2023-01-08T01:12:38.065Z,0.26755852842809363
2023-01-08T01:18:57.626Z,0.06020066889632107
2023-01-08T01:25:17.618Z,0.20735785953177258
2023-01-08T01:37:55.826Z,0.17391304347826086
2023-01-08T01:50:27.006Z,0.24749163879598662
2023-01-08T01:56:46.498Z,0.31438127090301005
2023-01-08T02:05:37.658Z,0.3612040133779264
2023-01-08T02:11:57.612Z,0.35451505016722407
2023-01-08T02:18:17.098Z,0.27424749163879597
2023-01-08T02:24:36.717Z,0.35451505016722407
2023-01-08T02:30:56.022Z,0.17391304347826086
2023-01-08T02:38:08.255Z,0.0
2023-01-08T02:48:39.998Z,0.17391304347826086
2023-01-08T02:54:59.398Z,0.45484949832775917
2023-01-08T03:01:18.886Z,0.08695652173913043
2023-01-08T03:07:39.028Z,0.26755852842809363
2023-01-08T03:19:35.803Z,0.2608695652173913
2023-01-08T03:25:56.051Z,0.1806020066889632
2023-01-08T03:32:16.292Z,0.4414715719063545
2023-01-08T03:44:50.173Z,0.4080267558528428
2023-01-08T03:51:09.614Z,0.26755852842809363
2023-01-08T03:57:28.804Z,0.26755852842809363
2023-01-08T04:09:20.974Z,0.29431438127090304
2023-01-08T04:15:40.708Z,0.26755852842809363
2023-01-08T04:22:00.267Z,0.18729096989966554
2023-01-08T04:28:19.658Z,0.17391304347826086
2023-01-08T08:47:36.131Z,0.08695652173913043
2023-01-08T08:54:01.184Z,0.35451505016722407
2023-01-08T09:00:27.011Z,0.14046822742474915
2023-01-08T09:07:50.784Z,0.0
2023-01-08T09:14:15.927Z,0.3010033444816054
2023-01-08T09:20:41.161Z,0.1939799331103679
2023-01-08T09:27:06.347Z,0.3612040133779264
2023-01-08T09:42:29.006Z,0.49498327759197325
2023-01-08T09:54:54.021Z,0.43478260869565216
2023-01-08T10:01:37.184Z,0.26755852842809363
2023-01-08T10:08:01.862Z,0.2608695652173913
2023-01-08T10:14:26.571Z,0.21739130434782608
2023-01-08T10:27:23.504Z,0.4414715719063545
2023-01-08T10:35:17.171Z,0.4214046822742475
2023-01-08T10:41:45.943Z,0.6956521739130435
2023-01-08T10:48:12.611Z,0.44481605351170567
2023-01-08T11:00:38.317Z,0.08695652173913043
2023-01-08T11:07:03.951Z,0.08695652173913043
2023-01-08T11:13:28.922Z,0.43478260869565216
2023-01-08T11:19:55.696Z,0.43478260869565216
2023-01-08T11:29:15.710Z,0.08695652173913043
2023-01-08T11:35:40.543Z,0.5150501672240803
2023-01-08T11:48:57.360Z,0.35451505016722407
2023-01-08T12:01:47.208Z,0.4080267558528428
2023-01-08T12:08:13.507Z,0.6086956521739131
2023-01-08T12:14:38.198Z,0.568561872909699
2023-01-08T12:24:02.485Z,0.1806020066889632
2023-01-08T12:30:27.333Z,0.862876254180602
2023-01-08T12:37:02.585Z,0.35451505016722407
2023-01-08T12:43:32.687Z,0.7759197324414716
2023-01-08T12:50:16.420Z,0.2608695652173913
2023-01-08T13:01:25.301Z,1.2040133779264215
2023-01-08T13:07:50.889Z,1.0635451505016722
2023-01-08T13:23:14.085Z,0.9096989966555183
2023-01-08T13:29:39.373Z,1.1872909698996656
2023-01-08T13:42:43.815Z,0.882943143812709
2023-01-08T13:49:08.926Z,0.5551839464882943
2023-01-08T13:59:47.852Z,0.7357859531772575
2023-01-08T14:06:13.339Z,0.7090301003344481
2023-01-08T14:12:38.516Z,1.1839464882943145
2023-01-08T14:19:04.043Z,0.5418060200668896
2023-01-08T14:25:28.996Z,0.5484949832775919
2023-01-08T14:31:56.792Z,1.0501672240802675
2023-01-08T14:38:21.729Z,0.8862876254180602
2023-01-08T14:44:46.576Z,0.7692307692307693
2023-01-08T14:51:11.335Z,0.8160535117056856
2023-01-08T14:57:37.013Z,0.5551839464882943
2023-01-08T15:04:02.743Z,1.160535117056856
2023-01-08T15:10:29.715Z,0.5418060200668896
2023-01-08T15:16:55.154Z,0.568561872909699
2023-01-08T15:25:42.330Z,0.9297658862876255
2023-01-08T15:32:04.529Z,0.9297658862876255
2023-01-08T15:38:30.113Z,0.8494983277591973
2023-01-08T15:44:54.442Z,1.0434782608695652
2023-01-08T15:52:07.070Z,1.1438127090301002
2023-01-08T15:58:29.546Z,1.1438127090301002
2023-01-08T16:04:53.328Z,0.9264214046822743
2023-01-08T16:11:17.918Z,1.173913043478261
2023-01-08T16:17:42.918Z,0.35451505016722407
2023-01-08T16:24:46.517Z,0.26755852842809363
2023-01-08T16:31:10.502Z,0.11371237458193979
2023-01-08T16:37:37.475Z,0.23411371237458195
2023-01-08T16:44:01.612Z,0.2608695652173913
2023-01-08T16:50:25.450Z,0.18394648829431437
2023-01-08T17:02:05.105Z,0.16722408026755853
2023-01-08T17:10:44.177Z,0.4280936454849498
2023-01-08T17:17:06.986Z,0.1806020066889632
2023-01-08T17:23:31.438Z,0.08695652173913043
2023-01-08T17:29:54.416Z,0.3277591973244147
2023-01-08T17:36:17.715Z,0.0
2023-01-08T17:42:40.302Z,0.1806020066889632
2023-01-08T17:49:02.460Z,0.09364548494983277
2023-01-08T17:55:25.691Z,0.43478260869565216
2023-01-08T18:01:48.719Z,0.17391304347826086
2023-01-08T18:09:57.324Z,0.13377926421404682
2023-01-08T18:19:00.244Z,0.17391304347826086
2023-01-08T18:25:23.377Z,0.09364548494983277
2023-01-08T18:31:47.962Z,0.34782608695652173
2023-01-08T18:38:09.030Z,0.3612040133779264
2023-01-08T18:44:31.037Z,0.2608695652173913
2023-01-08T18:50:54.555Z,0.0
2023-01-08T19:03:34.305Z,0.25418060200668896
2023-01-08T19:09:57.601Z,0.2608695652173913
2023-01-08T19:20:25.349Z,0.17391304347826086
2023-01-08T19:26:47.734Z,0.41471571906354515
2023-01-08T19:33:10.008Z,0.8193979933110368
2023-01-08T19:42:13.984Z,0.9130434782608695
2023-01-08T19:48:37.166Z,0.5752508361204013
2023-01-08T19:58:31.504Z,0.17391304347826086
2023-01-08T20:07:50.755Z,0.24749163879598662
2023-01-08T20:18:06.406Z,0.22073578595317725
2023-01-08T20:29:03.689Z,0.34782608695652173
2023-01-08T20:41:03.390Z,0.14046822742474915
2023-01-08T20:47:29.609Z,0.43478260869565216
2023-01-08T20:53:55.274Z,0.2608695652173913
2023-01-08T21:00:22.152Z,0.1806020066889632
2023-01-08T21:12:05.075Z,0.34782608695652173
2023-01-08T21:18:28.828Z,0.08695652173913043
2023-01-08T21:24:51.019Z,0.17391304347826086
2023-01-08T21:31:13.866Z,0.2608695652173913
2023-01-08T21:37:37.300Z,0.3979933110367893
2023-01-08T21:46:03.322Z,0.11371237458193979
2023-01-08T21:54:26.533Z,0.09364548494983277
2023-01-08T22:00:48.969Z,0.26755852842809363
2023-01-08T22:07:10.044Z,0.1939799331103679
2023-01-08T22:15:05.453Z,0.8361204013377926
2023-01-08T22:27:25.489Z,0.3612040133779264
2023-01-08T22:39:36.533Z,0.5016722408026756
2023-01-08T22:52:42.030Z,0.09364548494983277
2023-01-08T22:59:03.812Z,0.26755852842809363
2023-01-08T23:05:25.088Z,0.22742474916387959
2023-01-08T23:11:47.460Z,0.13377926421404682
2023-01-08T23:18:10.065Z,0.17391304347826086
2023-01-08T23:24:32.587Z,0.22073578595317725
2023-01-08T23:30:54.679Z,0.28762541806020064
2023-01-08T23:37:16.034Z,0.15384615384615385
2023-01-08T23:43:37.883Z,0.30434782608695654
2023-01-08T23:55:13.295Z,0.2608695652173913
